Portada
METAR-TAF:

METAR-TAF

Aeropuertos :

Carcasona, Francia

latitud: 43-13N, longitud: 002-19E, altitud: 130 m

Observación

El informe se hizo hace 21 minutos, a las 21:30 UTC
Viento 12 kt del este
Temperatura 14°C
Humedad 88%
Presión 1013 hPa
Visibilidad 10 km o más
Cielo cubierto a una altura de 800 ft

METAR: LFMK 222130Z AUTO 10012KT 9999 OVC008 14/12 Q1013

Hora: 22:51 (21:51 UTC)

Pronóstico

El informe se hizo hace 7 horas y 51 minutos, a las 14:00 UTC
Pronóstico válido del 22 a las 15 UTC al 23 a las 15 UTC
Viento 14 kt del este
Visibilidad 10 km o más
Escasas nubes a una altura de 2300 ft
Evolucionando progresivamente
del 22 a las 15 UTC al 22 a las 17 UTC
Cielo nuboso a una altura de 2000 ft
Temporalmente
del 22 a las 20 UTC al 23 a las 06 UTC
Visibilidad: 1500 m
neblina

TAF: LFMK 221400Z 2215/2315 10014KT 9999 FEW023 BECMG 2215/2217 BKN020 TEMPO 2220/2306 1500 BR VV///

Observaciones y pronósticos meteorológicos de más de 4000 aeropuertos (mensajes METAR y TAF).

Los puntos amarillos y rojos representan las estaciones disponibles.

Ponga el ratón en el punto deseado para ver el nombre de la estación.

Haga clic para ver las observaciones y los pronósticos meteorológicos.

Para cambiar el mapa : haga clic en los botones verdes con una cruz de color negro para hacer un zoom, en el botón verde con un guión para alejar o en las flechas verdes para mapas adyacentes.


METAR-TAF: